This demonstration page uses our WeatherBlox Daily Observations layout. Learn more.

41.55636, -103.73856

Hourly Observations for December 2, 2015

Temp ( °F °C ) Dew Point ( °F °C ) Humidity (%) Winds ( mph kmh ) Pressure ( in mb ) Visibility ( mi km ) Precip ( " mm )
12:53 am 00:53 Clear 27 -3 14 -10 59 59 WNW 10 17 30.27 1025 10 16.09344 0 0
1:53 am 01:53 Clear 23 -5 14 -10 68 68 NW 7 11 30.3 1026 10 16.09344 0 0
2:53 am 02:53 Clear 23 -5 12 -11 63 63 NW 14 22 30.3 1026 10 16.09344 0 0
3:53 am 03:53 Clear 21 -6 12 -11 68 68 NW 13 20 30.3 1026 10 16.09344 0 0
4:53 am 04:53 Clear 21 -6 12 -11 68 68 NW 13 20 30.3 1026 10 16.09344 0 0
5:53 am 05:53 Clear 21 -6 12 -11 68 68 NW 16 26 30.36 1028 10 16.09344 0 0
6:53 am 06:53 Clear 21 -6 12 -11 68 68 WNW 12 19 30.36 1028 10 16.09344 0 0
7:53 am 07:53 Sunny 25 -4 12 -11 59 59 NW 13 20 30.3 1026 10 16.09344 0 0
8:53 am 08:53 Sunny 30 -1 14 -10 51 51 WNW 8 13 30.3 1026 10 16.09344 0 0
9:53 am 09:53 Sunny 37 3 14 -10 38 38 WNW 13 20 30.24 1024 10 16.09344 0 0
10:53 am 10:53 Sunny 43 6 12 -11 29 29 W 12 19 30.15 1021 10 16.09344 0 0
11:53 am 11:53 Sunny 46 8 12 -11 25 25 WNW 13 20 30.12 1020 10 16.09344 0 0
12:53 pm 12:53 Sunny 48 9 12 -11 23 23 W 14 22 30.09 1019 10 16.09344 0 0
1:53 pm 13:53 Sunny 48 9 12 -11 23 23 WNW 10 17 30.09 1019 10 16.09344 0 0
2:53 pm 14:53 Sunny 48 9 12 -11 23 23 NW 10 17 30.09 1019 10 16.09344 0 0
3:53 pm 15:53 Sunny 45 7 14 -10 29 29 W 9 15 30.12 1020 10 16.09344 0 0
4:53 pm 16:53 Clear 36 2 16 -9 44 44 W 8 13 30.21 1023 10 16.09344 0 0
5:53 pm 17:53 Clear 34 1 18 -8 51 51 WNW 7 11 30.24 1024 10 16.09344 0 0
6:53 pm 18:53 Clear 27 -3 16 -9 64 64 NW 6 9 30.3 1026 10 16.09344 0 0
7:53 pm 19:53 Clear 27 -3 16 -9 64 64 N 5 7 30.3 1026 10 16.09344 0 0
8:53 pm 20:53 Clear 19 -7 12 -11 73 73 Calm 30.36 1028 10 16.09344 0 0
9:53 pm 21:53 Clear 19 -7 12 -11 73 73 N 7 11 30.36 1028 10 16.09344 0 0
10:53 pm 22:53 Clear 19 -7 12 -11 73 73 N 5 7 30.36 1028 10 16.09344 0 0
11:53 pm 23:53 Clear 19 -7 12 -11 73 73 NNE 3 6 30.36 1028 10 16.09344 0 0

Powered by AerisWeather